createdAt,value
2019-01-19T00:02:52.542Z,30.97
2019-01-19T00:06:24.507Z,27.60
2019-01-19T00:09:22.510Z,30.00
2019-01-19T00:13:10.545Z,26.83
2019-01-19T00:16:10.459Z,29.23
2019-01-19T00:20:00.519Z,25.53
2019-01-19T00:23:11.808Z,26.50
2019-01-19T00:26:58.635Z,27.40
2019-01-19T00:30:19.296Z,29.30
2019-01-19T00:34:08.457Z,23.73
2019-01-19T00:37:06.110Z,25.40
2019-01-19T00:40:43.270Z,24.20
2019-01-19T00:43:35.061Z,25.70
2019-01-19T00:46:46.888Z,28.87
2019-01-19T00:49:55.332Z,21.70
2019-01-19T00:53:10.876Z,33.97
2019-01-19T00:56:22.102Z,29.90
2019-01-19T00:59:29.785Z,21.80
2019-01-19T01:02:36.403Z,26.33
2019-01-19T01:05:35.076Z,25.17
2019-01-19T01:08:45.918Z,23.77
2019-01-19T01:12:07.792Z,27.20
2019-01-19T01:15:47.227Z,21.87
2019-01-19T01:18:37.634Z,26.80
2019-01-19T01:22:12.895Z,25.27
2019-01-19T01:25:43.280Z,22.50
2019-01-19T01:29:26.917Z,28.30
2019-01-19T01:32:51.216Z,23.30
2019-01-19T01:36:30.167Z,19.80
2019-01-19T01:39:35.063Z,31.20
2019-01-19T01:42:56.070Z,25.60
2019-01-19T01:46:19.152Z,21.20
2019-01-19T01:49:30.574Z,18.73
2019-01-19T01:52:45.927Z,20.80
2019-01-19T01:55:46.047Z,21.97
2019-01-19T01:58:55.262Z,23.00
2019-01-19T02:02:36.934Z,24.60
2019-01-19T02:05:51.486Z,24.10
2019-01-19T02:09:21.844Z,19.20
2019-01-19T02:12:50.004Z,21.10
2019-01-19T02:16:07.892Z,20.20
2019-01-19T02:19:29.670Z,22.40
2019-01-19T02:23:08.476Z,22.73
2019-01-19T02:26:32.658Z,17.10
2019-01-19T02:30:07.029Z,31.73
2019-01-19T02:33:51.934Z,21.33
2019-01-19T02:37:08.352Z,22.93
2019-01-19T02:41:00.873Z,16.37
2019-01-19T02:44:25.223Z,21.00
2019-01-19T02:47:30.810Z,20.70
2019-01-19T02:50:45.398Z,20.50
2019-01-19T02:54:01.197Z,18.40
2019-01-19T02:57:37.962Z,17.83
2019-01-19T03:00:57.712Z,18.53
2019-01-19T03:04:44.006Z,19.00
2019-01-19T03:08:29.377Z,14.00
2019-01-19T03:12:10.566Z,14.27
2019-01-19T03:15:16.954Z,15.47
2019-01-19T03:18:23.479Z,19.40
2019-01-19T03:21:51.709Z,18.10
2019-01-19T03:25:26.306Z,25.20
2019-01-19T03:28:38.951Z,21.20
2019-01-19T03:32:08.936Z,21.23
2019-01-19T03:35:19.478Z,19.90
2019-01-19T03:38:35.421Z,23.30
2019-01-19T03:42:01.488Z,24.07
2019-01-19T03:45:25.338Z,32.67
2019-01-19T03:48:39.348Z,25.60
2019-01-19T03:52:07.012Z,33.47
2019-01-19T03:55:13.668Z,25.87
2019-01-19T03:58:18.695Z,29.40
2019-01-19T04:01:20.377Z,27.20
2019-01-19T04:04:27.118Z,24.57
2019-01-19T04:07:44.847Z,24.67
2019-01-19T04:10:50.403Z,27.50
2019-01-19T04:14:41.512Z,26.20
2019-01-19T04:18:10.534Z,25.17
2019-01-19T04:21:21.551Z,28.80
2019-01-19T04:24:03.081Z,35.77
2019-01-19T04:26:41.666Z,26.50
2019-01-19T04:29:13.133Z,28.80
2019-01-19T04:31:44.551Z,36.43
2019-01-19T04:34:16.271Z,27.17
2019-01-19T04:36:52.479Z,30.83
2019-01-19T04:39:23.976Z,34.53
2019-01-19T04:41:55.361Z,34.50
2019-01-19T04:44:28.455Z,25.37
2019-01-19T04:46:59.881Z,32.67
2019-01-19T04:49:33.859Z,32.37
2019-01-19T04:52:05.263Z,32.10
2019-01-19T04:54:36.719Z,36.40
2019-01-19T04:57:08.293Z,37.80
2019-01-19T04:59:42.529Z,37.13
2019-01-19T05:02:16.385Z,36.90
2019-01-19T05:04:47.849Z,34.37
2019-01-19T05:07:23.973Z,37.03
2019-01-19T05:09:53.957Z,28.33
2019-01-19T05:12:25.376Z,34.90
2019-01-19T05:14:58.315Z,30.50
2019-01-19T05:17:29.744Z,34.40
2019-01-19T05:20:01.184Z,35.40
2019-01-19T05:22:35.424Z,32.93
2019-01-19T05:25:07.671Z,29.50
2019-01-19T05:27:39.219Z,30.73
2019-01-19T05:30:21.467Z,35.07
2019-01-19T05:32:53.069Z,32.37
2019-01-19T05:35:24.498Z,31.70
2019-01-19T05:37:55.911Z,41.10
2019-01-19T05:40:28.697Z,39.17
2019-01-19T05:43:00.113Z,36.60
2019-01-19T05:45:31.558Z,30.87
2019-01-19T05:48:02.996Z,33.60
2019-01-19T05:50:34.391Z,39.73
2019-01-19T05:53:05.925Z,47.10
2019-01-19T05:55:37.363Z,40.80
2019-01-19T05:58:09.128Z,36.70
2019-01-19T06:00:40.588Z,35.20
2019-01-19T06:03:12.007Z,37.87
2019-01-19T06:05:44.616Z,41.53
2019-01-19T06:08:16.032Z,35.00
2019-01-19T06:10:47.484Z,31.53
2019-01-19T06:13:20.658Z,39.23
2019-01-19T06:15:52.100Z,39.90
2019-01-19T06:18:23.451Z,42.90
2019-01-19T06:20:54.834Z,36.67
2019-01-19T06:23:26.248Z,38.10
2019-01-19T06:25:57.711Z,39.20
2019-01-19T06:28:29.130Z,36.20
2019-01-19T06:31:00.588Z,44.57
2019-01-19T06:33:34.769Z,42.77
2019-01-19T06:36:06.337Z,46.87
2019-01-19T06:38:37.775Z,48.33
2019-01-19T06:41:09.223Z,48.43
2019-01-19T06:43:40.663Z,48.50
2019-01-19T06:46:12.116Z,40.77
2019-01-19T06:48:43.539Z,48.00
2019-01-19T06:51:15.029Z,46.80
2019-01-19T06:53:47.143Z,43.80
2019-01-19T06:56:18.618Z,44.60
2019-01-19T06:58:50.424Z,43.50
2019-01-19T07:01:21.847Z,43.03
2019-01-19T07:03:53.266Z,40.70
2019-01-19T07:06:24.842Z,44.00
2019-01-19T07:08:56.262Z,52.17
2019-01-19T07:11:27.775Z,45.40
2019-01-19T07:13:59.207Z,43.90
2019-01-19T07:16:30.648Z,46.00
2019-01-19T07:19:02.139Z,38.57
2019-01-19T07:21:33.591Z,48.70
2019-01-19T07:24:06.122Z,44.70
2019-01-19T07:26:37.548Z,44.47
2019-01-19T07:29:08.994Z,43.33
2019-01-19T07:31:40.442Z,45.13
2019-01-19T07:34:11.925Z,45.27
2019-01-19T07:36:43.278Z,41.90
2019-01-19T07:39:14.705Z,43.90
2019-01-19T07:41:46.198Z,41.23
2019-01-19T07:44:17.629Z,42.93
2019-01-19T07:46:55.941Z,42.57
2019-01-19T07:49:22.766Z,39.70
2019-01-19T07:51:54.176Z,40.00
2019-01-19T07:54:25.678Z,43.30
2019-01-19T07:56:57.143Z,50.90
2019-01-19T07:59:28.620Z,57.67
2019-01-19T08:02:00.104Z,41.07
2019-01-19T08:04:31.532Z,42.83
2019-01-19T08:07:02.996Z,43.17
2019-01-19T08:09:34.442Z,55.17
2019-01-19T08:12:06.114Z,40.40
2019-01-19T08:14:37.714Z,35.97
2019-01-19T08:17:09.484Z,37.30
2019-01-19T08:19:41.050Z,41.87
2019-01-19T08:22:14.273Z,40.20
2019-01-19T08:24:45.706Z,38.47
2019-01-19T08:27:17.190Z,38.57
2019-01-19T08:29:48.655Z,36.23
2019-01-19T08:32:21.411Z,34.20
2019-01-19T08:34:52.881Z,38.73
2019-01-19T08:37:24.622Z,37.17
2019-01-19T08:39:56.216Z,35.77
2019-01-19T08:42:27.929Z,34.70
2019-01-19T08:44:59.642Z,37.40
2019-01-19T08:47:31.100Z,42.00
2019-01-19T08:50:03.778Z,40.07
2019-01-19T08:52:35.185Z,37.10
2019-01-19T08:55:07.572Z,31.43
2019-01-19T08:57:39.024Z,36.77
2019-01-19T09:00:14.876Z,37.10
2019-01-19T09:02:46.358Z,32.23
2019-01-19T09:05:19.803Z,39.83
2019-01-19T09:07:51.268Z,35.30
2019-01-19T09:10:22.899Z,41.63
2019-01-19T09:12:54.701Z,35.97
2019-01-19T09:15:26.249Z,38.80
2019-01-19T09:17:57.737Z,33.43
2019-01-19T09:20:31.348Z,36.50
2019-01-19T09:23:08.183Z,32.93
2019-01-19T09:25:39.672Z,33.67
2019-01-19T09:28:11.138Z,41.63
2019-01-19T09:30:42.638Z,32.00
2019-01-19T09:33:14.022Z,47.17
2019-01-19T09:35:45.489Z,30.37
2019-01-19T09:38:17.442Z,38.57
2019-01-19T09:40:48.869Z,28.70
2019-01-19T09:43:23.242Z,23.90
2019-01-19T09:45:54.701Z,31.70
2019-01-19T09:48:26.157Z,32.47
2019-01-19T09:50:57.628Z,29.87
2019-01-19T09:53:29.091Z,24.00
2019-01-19T09:56:01.478Z,31.27
2019-01-19T09:58:32.962Z,26.67
2019-01-19T10:01:04.392Z,32.33
2019-01-19T10:03:35.867Z,33.70
2019-01-19T10:06:07.333Z,42.93
2019-01-19T10:08:39.122Z,35.97
2019-01-19T10:11:11.049Z,33.23
2019-01-19T10:13:42.608Z,28.43
2019-01-19T10:16:14.211Z,27.00
2019-01-19T10:18:45.831Z,34.73
2019-01-19T10:21:17.337Z,28.70
2019-01-19T10:23:48.787Z,26.70
2019-01-19T10:26:20.196Z,26.13
2019-01-19T10:28:52.196Z,28.50
2019-01-19T10:31:23.662Z,24.10
2019-01-19T10:33:55.129Z,24.17
2019-01-19T10:36:26.576Z,23.00
2019-01-19T10:38:58.073Z,24.63
2019-01-19T10:41:29.502Z,23.80
2019-01-19T10:44:00.995Z,25.33
2019-01-19T10:46:32.410Z,22.00
2019-01-19T10:49:06.923Z,25.23
2019-01-19T10:51:38.352Z,25.20
2019-01-19T10:54:09.860Z,23.33
2019-01-19T10:56:41.270Z,53.23
2019-01-19T10:59:13.253Z,23.63
2019-01-19T11:01:44.706Z,20.90
2019-01-19T11:04:17.890Z,18.40
2019-01-19T11:06:50.958Z,25.37
2019-01-19T11:09:22.510Z,20.93
2019-01-19T11:11:53.948Z,26.90
2019-01-19T11:14:25.415Z,23.50
2019-01-19T11:16:58.202Z,22.27
2019-01-19T11:19:29.660Z,24.20
2019-01-19T11:22:01.121Z,17.97
2019-01-19T11:24:32.584Z,18.23
2019-01-19T11:27:04.095Z,21.40
2019-01-19T11:29:35.611Z,22.90
2019-01-19T11:32:08.649Z,20.73
2019-01-19T11:34:40.104Z,16.20
2019-01-19T11:37:11.662Z,20.53
2019-01-19T11:39:43.082Z,17.77
2019-01-19T11:42:14.642Z,30.30
2019-01-19T11:44:46.098Z,18.70
2019-01-19T11:47:17.628Z,22.77
2019-01-19T11:49:49.169Z,19.23
2019-01-19T11:52:20.613Z,14.97
2019-01-19T11:54:52.208Z,15.73
2019-01-19T11:57:23.725Z,14.50
2019-01-19T11:59:55.316Z,18.20
2019-01-19T12:02:26.818Z,16.70
2019-01-19T12:04:58.283Z,21.90
2019-01-19T12:07:31.006Z,24.40
2019-01-19T12:10:02.488Z,25.80
2019-01-19T12:12:33.993Z,27.43
2019-01-19T12:15:06.283Z,17.17
2019-01-19T12:17:37.755Z,19.10
2019-01-19T12:20:14.763Z,21.50
2019-01-19T12:22:46.192Z,16.60
2019-01-19T12:25:19.693Z,17.87
2019-01-19T12:27:51.111Z,16.40
2019-01-19T12:30:25.786Z,16.40
2019-01-19T12:32:57.263Z,13.60
2019-01-19T12:35:28.855Z,16.87
2019-01-19T12:38:00.548Z,10.20
2019-01-19T12:40:32.267Z,18.37
2019-01-19T12:43:14.121Z,17.37
2019-01-19T12:46:10.512Z,15.77
2019-01-19T12:48:41.960Z,18.43
2019-01-19T12:51:14.829Z,22.40
2019-01-19T12:53:47.431Z,19.70
2019-01-19T12:56:18.884Z,16.13
2019-01-19T12:58:50.329Z,16.97
2019-01-19T13:01:21.762Z,16.20
2019-01-19T13:03:53.280Z,29.47
2019-01-19T13:07:00.278Z,16.03
2019-01-19T13:09:39.390Z,15.33
2019-01-19T13:12:51.388Z,17.60
2019-01-19T13:16:16.781Z,17.10
2019-01-19T13:18:59.069Z,16.30
2019-01-19T13:22:31.360Z,22.40
2019-01-19T13:25:47.170Z,19.33
2019-01-19T13:29:14.431Z,14.20
2019-01-19T13:32:24.488Z,26.97
2019-01-19T13:36:20.163Z,16.07
2019-01-19T13:39:45.623Z,12.90
2019-01-19T13:43:15.881Z,46.23
2019-01-19T13:46:00.170Z,16.23
2019-01-19T13:49:43.255Z,16.07
2019-01-19T13:52:55.672Z,16.37
2019-01-19T13:56:29.555Z,24.23
2019-01-19T13:59:49.184Z,31.97
2019-01-19T14:02:52.244Z,29.03
2019-01-19T14:06:02.727Z,20.57
2019-01-19T14:09:36.087Z,19.27
2019-01-19T14:13:25.103Z,19.73
2019-01-19T14:16:45.607Z,19.60
2019-01-19T14:19:55.823Z,20.27
2019-01-19T14:23:31.917Z,27.80
2019-01-19T14:26:53.906Z,18.23
2019-01-19T14:30:15.724Z,19.07
2019-01-19T14:33:20.311Z,16.63
2019-01-19T14:36:49.799Z,25.57
2019-01-19T14:40:33.202Z,35.03
2019-01-19T14:43:53.147Z,25.27
2019-01-19T14:47:02.013Z,29.10
2019-01-19T14:50:51.706Z,35.77
2019-01-19T14:54:00.288Z,31.03
2019-01-19T14:57:05.539Z,30.90
2019-01-19T15:00:39.254Z,29.00
2019-01-19T15:04:02.835Z,30.43
2019-01-19T15:07:22.904Z,37.67
2019-01-19T15:10:50.304Z,32.13
2019-01-19T15:14:00.299Z,31.43
2019-01-19T15:17:26.128Z,34.83
2019-01-19T15:20:47.593Z,30.50
2019-01-19T15:23:44.898Z,35.13
2019-01-19T15:27:23.779Z,38.50
2019-01-19T15:30:58.636Z,42.53
2019-01-19T15:34:30.500Z,34.70
2019-01-19T15:37:54.754Z,25.87
2019-01-19T15:41:15.162Z,26.40
2019-01-19T15:44:44.839Z,30.20
2019-01-19T15:47:40.261Z,20.07
2019-01-19T15:51:02.946Z,26.27
2019-01-19T15:53:43.023Z,21.73
2019-01-19T15:57:41.292Z,27.67
2019-01-19T16:01:07.461Z,27.43
2019-01-19T16:04:16.742Z,22.73
2019-01-19T16:07:49.179Z,24.10
2019-01-19T16:11:32.897Z,34.27
2019-01-19T16:15:23.142Z,26.33
2019-01-19T16:18:29.922Z,32.00
2019-01-19T16:22:06.382Z,33.63
2019-01-19T16:25:34.292Z,26.97
2019-01-19T16:29:00.715Z,34.70
2019-01-19T16:32:19.099Z,26.60
2019-01-19T16:35:49.844Z,30.57
2019-01-19T16:39:25.642Z,38.77
2019-01-19T16:42:33.175Z,27.13
2019-01-19T16:45:32.663Z,40.07
2019-01-19T16:48:19.045Z,36.27
2019-01-19T16:51:46.035Z,71.40
2019-01-19T16:54:40.515Z,55.20
2019-01-19T16:58:22.343Z,53.20
2019-01-19T17:01:48.689Z,31.17
2019-01-19T17:05:24.686Z,30.50
2019-01-19T17:08:32.884Z,22.90
2019-01-19T17:11:57.650Z,34.70
2019-01-19T17:15:36.423Z,22.63
2019-01-19T17:19:04.513Z,23.67
2019-01-19T17:22:38.572Z,22.00
2019-01-19T17:26:14.868Z,32.63
2019-01-19T17:29:19.139Z,23.17
2019-01-19T17:32:37.192Z,21.90
2019-01-19T17:35:56.346Z,38.40
2019-01-19T17:39:13.887Z,24.20
2019-01-19T17:43:06.347Z,35.07
2019-01-19T17:46:31.731Z,22.17
2019-01-19T17:49:51.350Z,28.83
2019-01-19T17:53:41.095Z,28.93
2019-01-19T17:57:04.118Z,26.63
2019-01-19T18:00:27.025Z,26.80
2019-01-19T18:03:33.379Z,25.47
2019-01-19T18:06:45.233Z,25.97
2019-01-19T18:10:15.004Z,33.33
2019-01-19T18:13:34.419Z,38.90
2019-01-19T18:17:25.772Z,28.93
2019-01-19T18:20:45.126Z,28.83
2019-01-19T18:24:40.589Z,28.00
2019-01-19T18:28:09.386Z,29.70
2019-01-19T18:31:31.764Z,30.90
2019-01-19T18:34:29.130Z,41.10
2019-01-19T18:37:30.527Z,26.50
2019-01-19T18:40:48.940Z,36.07
2019-01-19T18:43:52.112Z,50.37
2019-01-19T18:47:28.709Z,69.13
2019-01-19T18:51:26.913Z,34.30
2019-01-19T18:54:34.232Z,44.13
2019-01-19T18:58:25.215Z,32.20
2019-01-19T19:01:46.127Z,28.60
2019-01-19T19:05:22.209Z,32.73
2019-01-19T19:08:35.789Z,33.50
2019-01-19T19:11:46.034Z,35.13
2019-01-19T19:14:48.013Z,32.20
2019-01-19T19:18:22.775Z,35.67
2019-01-19T19:21:43.562Z,46.03
2019-01-19T19:25:32.802Z,36.80
2019-01-19T19:28:49.473Z,37.17
2019-01-19T19:32:20.022Z,41.20
2019-01-19T19:35:23.254Z,42.13
2019-01-19T19:38:45.456Z,39.90
2019-01-19T19:42:20.366Z,56.47
2019-01-19T19:45:36.193Z,48.87
2019-01-19T19:48:43.597Z,49.20
2019-01-19T19:52:03.820Z,50.77
2019-01-19T19:54:36.449Z,45.23
2019-01-19T19:57:07.983Z,49.33
2019-01-19T19:59:39.584Z,42.43
2019-01-19T20:02:11.304Z,48.03
2019-01-19T20:04:42.916Z,41.40
2019-01-19T20:07:14.935Z,48.50
2019-01-19T20:09:46.658Z,45.60
2019-01-19T20:12:18.195Z,45.87
2019-01-19T20:14:49.707Z,45.87
2019-01-19T20:17:21.372Z,39.30
2019-01-19T20:19:53.057Z,46.60
2019-01-19T20:22:24.563Z,45.13
2019-01-19T20:24:56.140Z,50.33
2019-01-19T20:27:27.584Z,46.73
2019-01-19T20:29:59.085Z,53.73
2019-01-19T20:32:30.645Z,53.10
2019-01-19T20:35:02.191Z,47.37
2019-01-19T20:37:33.758Z,58.20
2019-01-19T20:40:06.274Z,50.60
2019-01-19T20:42:37.742Z,67.20
2019-01-19T20:45:11.347Z,70.53
2019-01-19T20:47:42.877Z,66.77
2019-01-19T20:50:14.617Z,80.40
2019-01-19T20:52:46.169Z,74.43
2019-01-19T20:55:17.646Z,64.93
2019-01-19T20:57:49.025Z,75.37
2019-01-19T21:00:20.660Z,72.43
2019-01-19T21:02:53.446Z,67.83
2019-01-19T21:05:24.915Z,53.10
2019-01-19T21:07:56.505Z,58.93
2019-01-19T21:10:31.851Z,54.83
2019-01-19T21:13:01.272Z,64.00
2019-01-19T21:15:33.839Z,59.80
2019-01-19T21:18:05.372Z,62.47
2019-01-19T21:20:37.911Z,56.90
2019-01-19T21:23:09.373Z,61.27
2019-01-19T21:25:40.914Z,61.17
2019-01-19T21:28:12.342Z,73.70
2019-01-19T21:30:43.928Z,68.53
2019-01-19T21:33:15.371Z,60.57
2019-01-19T21:35:46.841Z,54.47
2019-01-19T21:38:20.720Z,62.13
2019-01-19T21:40:52.184Z,57.83
2019-01-19T21:43:23.647Z,56.53
2019-01-19T21:45:55.117Z,55.17
2019-01-19T21:48:26.575Z,59.87
2019-01-19T21:50:58.050Z,67.20
2019-01-19T21:53:31.012Z,50.70
2019-01-19T21:56:02.461Z,63.10
2019-01-19T21:58:33.927Z,57.73
2019-01-19T22:01:05.394Z,65.30
2019-01-19T22:03:42.913Z,64.77
2019-01-19T22:06:14.580Z,77.03
2019-01-19T22:08:46.022Z,68.83
2019-01-19T22:11:17.503Z,55.07
2019-01-19T22:13:50.554Z,57.37
2019-01-19T22:16:22.095Z,52.57
2019-01-19T22:18:53.571Z,49.73
2019-01-19T22:21:26.334Z,56.73
2019-01-19T22:23:57.752Z,49.50
2019-01-19T22:26:29.586Z,51.53
2019-01-19T22:29:01.025Z,53.67
2019-01-19T22:31:32.516Z,55.20
2019-01-19T22:34:03.934Z,51.00
2019-01-19T22:36:35.394Z,64.87
2019-01-19T22:39:08.951Z,53.80
2019-01-19T22:41:40.415Z,46.50
2019-01-19T22:44:11.848Z,43.30
2019-01-19T22:46:43.290Z,46.00
2019-01-19T22:49:14.761Z,48.47
2019-01-19T22:51:47.057Z,49.40
2019-01-19T22:54:18.530Z,54.90
2019-01-19T22:56:49.980Z,50.73
2019-01-19T22:59:21.399Z,53.80
2019-01-19T23:02:10.784Z,48.13
2019-01-19T23:04:42.298Z,53.87
2019-01-19T23:07:13.828Z,55.50
2019-01-19T23:09:45.277Z,75.80
2019-01-19T23:12:16.774Z,54.10
2019-01-19T23:14:48.574Z,53.60
2019-01-19T23:17:20.115Z,46.43
2019-01-19T23:19:51.566Z,45.57
2019-01-19T23:22:24.300Z,47.43
2019-01-19T23:24:56.021Z,45.70
2019-01-19T23:27:27.473Z,45.43
2019-01-19T23:29:58.907Z,45.03
2019-01-19T23:32:30.395Z,41.43
2019-01-19T23:35:01.838Z,46.37
2019-01-19T23:37:33.284Z,36.80
2019-01-19T23:40:05.325Z,40.43
2019-01-19T23:42:36.858Z,34.07
2019-01-19T23:45:08.406Z,35.50
2019-01-19T23:47:39.962Z,43.30
2019-01-19T23:50:12.589Z,33.17
2019-01-19T23:52:45.360Z,37.17
2019-01-19T23:55:19.058Z,31.97
2019-01-19T23:57:51.031Z,33.93
